x

Buoy E01 - Central Maine Shelf (44032) Wave Buoy

2:04pm - Fri 6th Mar 2015 All times are EST. -5 hours from GMT.

  • Sig Wave height 2.0ft
  • Peak Period 11s
  • Wind
    11mph, 13mph gusts
  • Sea Temp 37°f
  • 空気 Temp 20°f
  • Sea Pressure 1029.3mb
  • Buoy E01 - Central Maine Shelf
  • Buoy E01 - Central Maine Shelf

More Historic Weather Station data

Upgrade to MSW Pro to gain access to the past 30 days of data for over 8000 Wavebouys and Weather Stations around the globe.

Join Pro

Comparision Forecast

View Surf forecast
   
Fri 03/06 2:04pm 2ft 11s 11 13 mph 1029.3mb 37f 20f
1:04pm 2.5ft 11s 7 11 mph 1030.1mb 37f 18f
12:04pm 1.6ft 5s 2 7 mph 1030.9mb 37f 18f
11:04am 2.5ft 11s 4 7 mph 1030.9mb 37f 16f
10:04am 2.5ft 11s 7 11 mph 1031.1mb 37f 16f
9:04am 1.6ft 5s 9 13 mph 1031.5mb 37f 15f
8:04am 3.5ft 11s 13 18 mph 1031.1mb 37f 14f
7:04am 3.5ft 11s 13 18 mph 1030.3mb 36f 14f
6:04am 2.5ft 3s 18 22 mph 1029.6mb 36f 15f
5:04am 2.5ft 4s 20 27 mph 1029.1mb 36f 14f
4:04am 2.5ft 4s 20 29 mph 1028.4mb 36f 14f
3:04am 3ft 4s 20 27 mph 1027.6mb 37f 14f
2:04am 3.5ft 4s 25 29 mph 1026.9mb 37f 15f
1:04am 3.5ft 4s 22 31 mph 1025.9mb 37f 16f
12:04am 3.5ft 4s 22 27 mph 1025.4mb 37f 17f
Thu 03/05 11:04pm 3.5ft 4s 27 31 mph 1024.7mb 37f 19f
10:04pm  -   -  20 27 mph 1023.2mb 37f 19f
9:04pm 2.5ft 4s 22 27 mph 1022.9mb 37f 20f
8:04pm 2.5ft 3s 20 25 mph 1022mb 37f 20f
7:04pm  -   -  18 25 mph 1020.6mb 37f 21f
6:04pm 4.5ft 11s 18 25 mph 1019.7mb 37f 21f
5:04pm 3ft 4s 20 27 mph 1018.9mb 36f 22f
4:04pm  -   -  20 27 mph 1018.2mb 36f 23f
3:04pm 5ft 11s 18 25 mph 1018.2mb 37f 24f
2:04pm 3ft 4s 20 27 mph 1017mb 37f 24f
1:04pm  -   -  25 29 mph 1016.5mb 37f 25f
12:04pm  -   -  20 25 mph 1016.7mb 37f 26f
11:04am  -   -  22 27 mph 1016.5mb 37f 27f
10:04am 5ft 11s 22 27 mph 1015.7mb 37f 28f
9:04am 3ft 3s 22 27 mph 1014.6mb 37f 30f
8:04am 5.5ft 11s 20 25 mph 1013.3mb 37f 33f
7:04am 7ft 11s 20 25 mph 1012.9mb 37f 34f
6:04am  -   -  20 25 mph 1011.7mb 37f 35f
5:04am  -   -  18 25 mph 1010.8mb 37f 35f
4:04am 7ft 11s 20 25 mph 1009.1mb 37f 36f
3:04am 7.5ft 11s 18 22 mph 1008.3mb 37f 38f
2:04am 7.5ft 11s 22 27 mph 1008.1mb 37f 38f
1:04am 7.5ft 6s 22 29 mph 1006.4mb 38f 38f
12:04am 7ft 11s 22 29 mph 1007mb 37f 39f
Wed 03/04 11:04pm 7.5ft 11s 25 29 mph 1007mb 37f 39f
10:04pm 7ft 8s 22 27 mph 1005mb 37f 40f
9:04pm 4.5ft 5s 20 25 mph 1006.4mb 37f 40f
8:04pm 7ft 11s 22 27 mph 1005mb 37f 40f
7:04pm 8ft 8s 18 22 mph 1005.8mb 37f 40f
6:04pm 7ft 8s 16 20 mph 1005mb 37f 40f
5:04pm 4.5ft 6s 13 18 mph 1005mb 37f 40f
4:04pm 5ft 8s 16 18 mph 1004.3mb 37f 39f
3:04pm 5ft 8s 13 18 mph 1004.2mb 37f 39f
2:04pm 7ft 8s 18 20 mph 1004.6mb 37f 39f
1:04pm 5.5ft 8s 18 22 mph 1004.5mb 37f 38f
12:04pm 7ft 8s 18 22 mph 1004.3mb 37f 38f
11:04am 6ft 8s 18 20 mph 1004mb 37f 37f
10:04am 7ft 8s 18 20 mph 1003.3mb 37f 37f
9:04am 8ft 8s 18 20 mph 1003.9mb 37f 37f
8:04am 9ft 8s 18 22 mph 1003.7mb 37f 37f
7:04am 9ft 8s 22 27 mph 1002.4mb 37f 37f
6:04am 10ft 8s 22 27 mph 1001.3mb 37f 36f
5:04am 9ft 8s 20 25 mph 1001.3mb 37f 37f
4:04am 9ft 8s 22 25 mph 1001.8mb 37f 37f
3:04am 8.5ft 8s 22 27 mph 1002.9mb 37f 37f
2:04am 10.5ft 8s 27 31 mph 1005.1mb 37f 36f
1:04am 8.5ft 6s 29 36 mph 1006.5mb 37f 34f
12:04am 11ft 6s 27 34 mph - 37f 32f
Tue 03/03 11:04pm 8ft 6s 27 34 mph 1011mb 37f 31f
10:04pm 8.5ft 6s 29 36 mph 1013.8mb 37f 30f
9:04pm 6ft 5s 29 34 mph 1016.1mb 37f 29f
8:04pm 4ft 5s 25 29 mph 1017.2mb 37f 31f
7:04pm 3.5ft 4s 22 27 mph 1019.3mb 37f 31f
6:04pm  -   -  20 27 mph 1020.5mb 37f 30f
5:04pm 2.5ft 11s 18 22 mph 1021.6mb 37f 29f
4:04pm 1.6ft 3s 16 20 mph 1022.9mb 37f 28f
3:04pm 1.6ft 3s 13 18 mph 1024.1mb 37f 27f
2:04pm 1.6ft 4s 13 16 mph 1024.7mb 37f 25f
1:04pm 2.5ft 11s 13 18 mph 1026mb 37f 25f
12:04pm 2ft 3s 13 20 mph 1026.4mb 37f 24f
11:04am 1.6ft 3s 16 18 mph 1027.3mb 37f 22f
10:04am 2ft 3s 16 20 mph 1027.4mb 37f 21f
9:04am 2.5ft 11s 16 20 mph 1027.5mb 37f 20f
8:04am 2ft 3s 16 20 mph 1027.3mb 37f 20f
7:04am 2.5ft 3s 20 22 mph 1026.9mb 37f 20f
6:04am 3.5ft 4s 22 27 mph 1026.4mb 36f 20f
5:04am 3ft 4s 20 27 mph 1025.6mb 36f 21f
4:04am 3ft 4s 22 29 mph 1024mb 36f 21f
3:04am 4ft 4s 25 34 mph 1023.3mb 36f 22f
2:04am 4ft 4s 25 31 mph 1022.7mb 36f 22f
1:04am 5ft 4s 27 36 mph 1021.6mb 36f 23f
12:04am 6.5ft 5s 29 43 mph 1020.5mb 36f 24f
Mon 03/02 11:04pm 6ft 5s 34 47 mph 1018.8mb 36f 25f
10:04pm 5.5ft 5s 27 34 mph 1017.9mb 36f 28f
9:04pm 5ft 5s 31 40 mph 1016.7mb 36f 29f